• Join FlightAware (Why Join?)
  • Login
  • US Flag 
04:28AM EDT


 

Airport Tracker/Info


-or-


 

Live Flight TrackerFlight Track Log ✈ EJA727 ✈ 27-Jun-2013 ✈ KPWK - KBIV

Flight Track Log - Related Links

Times and Time Zones

All times are in EDT time to prevent confusion due to time zone crossing. See the EJA727 flight status page for this flight to view local times or setup timezone preferences in your user account.

Time Position Orientation Groundspeed Altitude Reporting Facility
EDT Latitude Longitude Course Direction KTS MPH feet Rate Location/Type
04:36PM 42.1500 -87.9167 16° North 185 213 2,000  Level Chicago TRACON
04:37PM 42.1833 -87.8500 56° Northeast 242 278 3,800 960 Climbing Chicago TRACON
04:38PM 42.2167 -87.7667 62° Northeast 249 287 4,000 120 Climbing Chicago TRACON
04:39PM 42.2356 -87.7275 57° Northeast 246 283 4,000 -120 Level Chicago Center
04:40PM 42.2703 -87.6483 59° Northeast 247 284 3,900  Descending Chicago Center
04:41PM 42.3050 -87.5711 59° Northeast 243 280 4,000 900 Climbing Chicago Center
04:42PM 42.4674 -87.7626 16° North  Level FlightAware Approximate
04:42PM 42.3386 -87.4889 61° Northeast 254 292 5,800  Level Chicago Center
04:43PM 42.3839 -87.3828 60° Northeast 289 333 5,900 60 Climbing Chicago Center
04:44PM 42.4158 -87.2808 67° East 293 337 6,000  Climbing Chicago Center
04:45PM 42.4458 -87.1717 70° East 306 352 6,000 -60 Level Chicago Center
04:46PM 42.4756 -87.0681 69° East 299 344 5,900  Descending Chicago Center
04:47PM 42.5044 -86.9675 69° East 290 334 6,100 60 Climbing Chicago Center
04:48PM 42.5383 -86.8472 69° East 287 330 6,100 -60 Level Chicago Center
04:49PM 42.5686 -86.7436 68° East 296 341 6,000 -60 Descending Chicago Center
04:50PM 42.5964 -86.6400 70° East 295 339 6,000  Level Chicago Center
04:51PM 42.6239 -86.5389 70° East 289 333 6,100 -540 Climbing Chicago Center
04:52PM 42.6525 -86.4383 69° East 286 329 5,000 -1,020 Descending Chicago Center
04:53PM 42.7022 -86.3319 58° Northeast 282 325 4,100 -840 Descending Chicago Center
04:54PM 42.7506 -86.2522 50° Northeast 278 320 3,300 -780 Descending Chicago Center
04:55PM 42.7808 -86.1650 65° Northeast 269 310 2,600 -360 Descending Chicago Center
04:56PM 42.7922 -86.0822 79° East 240 276 2,600 -300 Level Chicago Center
04:58PM 42.7736 -86.0250 114° Southeast 208 239 2,000 -780 Descending Chicago Center
04:59PM 42.7467 -86.0706 231° Southwest 168 193 1,100 -540 Descending Chicago Center
05:00PM 42.7408 -86.1203 261° West 159 183 900 -240 Descending Chicago Center